MVD weather

Carrasco International /General C L Berisso Airport
Montevideo, Canelones Department, Uruguay

Public forecast

Using degrees Celsius for public forecast. Weather courtesy of forecast.io.

Current aviation weather report (METAR) for Carrasco International /General C L Berisso Airport

Retrieved 2019/10/20 22:00 UTC (50 minutes ago):

SUMU 202200Z 11010KT 9999 FEW030 OVC080 15/11 Q1019 NOSIG

Aviation forecast (TAF) for Carrasco International /General C L Berisso Airport

Retrieved 2019/10/20 18:45 UTC (4 hours ago):

TAF SUMU 201730Z 2018/2118 14015KT 9999 BKN025 OVC200 TX17/2118Z TN11/2118Z TEMPO 2100/2112 5000 RA BR BKN015 BKN080 PROB30 TEMPO 2100/2106 TS FEW040CB BECMG 2110/2112 05005KT